createdAt,value
2018-03-15T00:00:19.250Z,51.59
2018-03-15T00:01:21.743Z,51.58
2018-03-15T00:02:28.214Z,51.55
2018-03-15T00:03:34.620Z,51.55
2018-03-15T00:04:37.128Z,51.59
2018-03-15T00:05:39.646Z,51.64
2018-03-15T00:06:42.142Z,51.68
2018-03-15T00:07:44.660Z,51.62
2018-03-15T00:08:47.155Z,51.65
2018-03-15T00:09:49.704Z,51.69
2018-03-15T00:10:52.213Z,51.74
2018-03-15T00:11:54.694Z,51.83
2018-03-15T00:12:57.182Z,51.82
2018-03-15T00:13:59.705Z,52.11
2018-03-15T00:15:02.222Z,52.10
2018-03-15T00:16:04.729Z,52.20
2018-03-15T00:17:07.236Z,52.25
2018-03-15T00:18:09.743Z,52.15
2018-03-15T00:19:12.369Z,52.06
2018-03-15T00:20:19.430Z,51.94
2018-03-15T00:21:21.918Z,52.05
2018-03-15T00:22:24.434Z,52.07
2018-03-15T00:23:26.937Z,52.12
2018-03-15T00:24:29.492Z,52.11
2018-03-15T00:25:32.040Z,52.14
2018-03-15T00:26:34.544Z,52.10
2018-03-15T00:27:37.063Z,52.36
2018-03-15T00:28:39.594Z,52.31
2018-03-15T00:29:42.098Z,52.39
2018-03-15T00:30:44.623Z,52.23
2018-03-15T00:31:47.137Z,52.24
2018-03-15T00:32:49.703Z,52.23
2018-03-15T00:33:52.220Z,52.34
2018-03-15T00:34:54.756Z,52.31
2018-03-15T00:35:57.253Z,52.40
2018-03-15T00:36:59.780Z,52.45
2018-03-15T00:38:02.284Z,52.47
2018-03-15T00:39:04.794Z,52.37
2018-03-15T00:40:07.334Z,52.36
2018-03-15T00:41:09.845Z,52.37
2018-03-15T00:42:12.407Z,52.34
2018-03-15T00:43:14.884Z,52.29
2018-03-15T00:44:17.371Z,52.38
2018-03-15T00:45:19.894Z,52.37
2018-03-15T00:46:22.396Z,52.56
2018-03-15T00:47:24.917Z,52.76
2018-03-15T00:48:27.416Z,52.70
2018-03-15T00:49:29.993Z,52.65
2018-03-15T00:50:32.525Z,52.60
2018-03-15T00:51:35.037Z,52.64
2018-03-15T00:52:37.550Z,52.58
2018-03-15T00:53:40.081Z,52.58
2018-03-15T00:54:42.586Z,52.56
2018-03-15T00:55:45.131Z,52.62
2018-03-15T00:56:47.649Z,52.65
2018-03-15T00:57:50.322Z,52.62
2018-03-15T00:58:52.843Z,52.68
2018-03-15T00:59:55.346Z,52.67
2018-03-15T01:00:57.873Z,52.65
2018-03-15T01:02:00.387Z,52.68
2018-03-15T01:03:02.894Z,52.69
2018-03-15T01:04:05.414Z,52.70
2018-03-15T01:05:07.918Z,52.74
2018-03-15T01:06:10.439Z,52.78
2018-03-15T01:07:12.939Z,52.72
2018-03-15T01:08:15.472Z,52.71
2018-03-15T01:09:17.966Z,52.73
2018-03-15T01:10:20.466Z,52.79
2018-03-15T01:11:22.992Z,52.76
2018-03-15T01:12:25.508Z,52.68
2018-03-15T01:13:28.026Z,52.80
2018-03-15T01:14:30.514Z,52.82
2018-03-15T01:15:33.002Z,52.86
2018-03-15T01:16:35.547Z,52.89
2018-03-15T01:17:38.062Z,52.94
2018-03-15T01:18:40.557Z,52.89
2018-03-15T01:19:43.059Z,52.86
2018-03-15T01:20:45.578Z,52.97
2018-03-15T01:21:48.104Z,53.64
2018-03-15T01:22:50.622Z,53.66
2018-03-15T01:23:53.121Z,53.96
2018-03-15T01:24:55.645Z,53.75
2018-03-15T01:25:58.163Z,53.80
2018-03-15T01:27:00.697Z,53.76
2018-03-15T01:28:03.225Z,53.73
2018-03-15T01:29:05.746Z,53.59
2018-03-15T01:30:08.238Z,53.61
2018-03-15T01:31:10.723Z,53.78
2018-03-15T01:32:13.253Z,53.70
2018-03-15T01:33:15.770Z,53.61
2018-03-15T01:34:18.272Z,53.74
2018-03-15T01:35:20.896Z,54.03
2018-03-15T01:36:23.412Z,54.06
2018-03-15T01:37:25.919Z,54.21
2018-03-15T01:38:28.421Z,54.64
2018-03-15T01:39:30.927Z,54.71
2018-03-15T01:40:33.452Z,54.68
2018-03-15T01:41:35.958Z,54.51
2018-03-15T01:42:38.490Z,54.33
2018-03-15T01:43:41.011Z,54.43
2018-03-15T01:44:43.527Z,54.45
2018-03-15T01:45:46.014Z,54.55
2018-03-15T01:46:48.518Z,54.40
2018-03-15T01:47:51.026Z,54.05
2018-03-15T01:48:53.523Z,53.94
2018-03-15T01:49:56.078Z,53.91
2018-03-15T01:50:58.601Z,53.87
2018-03-15T01:52:01.090Z,53.85
2018-03-15T01:53:03.621Z,53.85
2018-03-15T01:54:06.120Z,53.83
2018-03-15T01:55:08.628Z,53.87
2018-03-15T01:56:11.137Z,53.81
2018-03-15T01:57:13.690Z,53.81
2018-03-15T01:58:16.198Z,53.82
2018-03-15T01:59:18.682Z,53.95
2018-03-15T02:00:21.179Z,53.97
2018-03-15T02:01:23.672Z,54.06
2018-03-15T02:02:26.197Z,54.05
2018-03-15T02:03:28.697Z,53.98
2018-03-15T02:04:31.216Z,53.97
2018-03-15T02:05:33.730Z,53.91
2018-03-15T02:06:36.227Z,53.93
2018-03-15T02:07:38.771Z,54.02
2018-03-15T02:08:41.281Z,54.15
2018-03-15T02:09:43.794Z,54.15
2018-03-15T02:10:46.296Z,54.07
2018-03-15T02:11:48.822Z,54.07
2018-03-15T02:12:51.351Z,54.10
2018-03-15T02:13:53.861Z,54.04
2018-03-15T02:14:56.368Z,54.16
2018-03-15T02:15:58.873Z,54.17
2018-03-15T02:17:01.373Z,54.10
2018-03-15T02:18:03.906Z,54.04
2018-03-15T02:19:06.510Z,54.04
2018-03-15T02:20:09.071Z,54.10
2018-03-15T02:21:11.593Z,54.17
2018-03-15T02:22:14.123Z,54.33
2018-03-15T02:23:16.659Z,54.20
2018-03-15T02:24:19.160Z,54.15
2018-03-15T02:25:21.654Z,54.00
2018-03-15T02:26:24.174Z,53.92
2018-03-15T02:27:26.666Z,53.90
2018-03-15T02:28:29.195Z,53.92
2018-03-15T02:29:31.704Z,53.97
2018-03-15T02:30:34.208Z,53.93
2018-03-15T02:31:36.695Z,53.94
2018-03-15T02:32:39.202Z,54.08
2018-03-15T02:33:41.761Z,54.04
2018-03-15T02:34:44.264Z,53.97
2018-03-15T02:35:46.777Z,53.98
2018-03-15T02:36:49.262Z,54.01
2018-03-15T02:37:51.775Z,54.01
2018-03-15T02:38:54.334Z,54.32
2018-03-15T02:39:56.863Z,54.42
2018-03-15T02:40:59.401Z,54.41
2018-03-15T02:42:01.939Z,54.37
2018-03-15T02:43:04.453Z,54.41
2018-03-15T02:44:06.986Z,54.50
2018-03-15T02:45:09.506Z,54.46
2018-03-15T02:46:12.051Z,54.35
2018-03-15T02:47:14.581Z,54.22
2018-03-15T02:48:17.071Z,54.14
2018-03-15T02:49:19.591Z,54.12
2018-03-15T02:50:22.102Z,54.12
2018-03-15T02:51:24.582Z,54.12
2018-03-15T02:52:27.089Z,54.15
2018-03-15T02:53:29.600Z,54.30
2018-03-15T02:54:32.134Z,54.35
2018-03-15T02:55:34.660Z,54.59
2018-03-15T02:56:37.146Z,54.51
2018-03-15T02:57:39.653Z,54.48
2018-03-15T02:58:42.636Z,54.74
2018-03-15T02:59:45.179Z,54.81
2018-03-15T03:00:47.696Z,54.87
2018-03-15T03:01:50.207Z,54.84
2018-03-15T03:02:52.717Z,54.86
2018-03-15T03:03:55.262Z,54.88
2018-03-15T03:04:57.793Z,55.05
2018-03-15T03:06:00.291Z,55.16
2018-03-15T03:07:03.007Z,55.05
2018-03-15T03:08:05.502Z,54.93
2018-03-15T03:09:08.013Z,55.02
2018-03-15T03:10:10.559Z,55.02
2018-03-15T03:11:13.079Z,55.01
2018-03-15T03:12:15.584Z,55.02
2018-03-15T03:13:18.074Z,54.93
2018-03-15T03:14:20.586Z,54.87
2018-03-15T03:15:23.102Z,55.21
2018-03-15T03:16:25.630Z,55.16
2018-03-15T03:17:28.128Z,55.08
2018-03-15T03:18:30.628Z,55.11
2018-03-15T03:19:33.124Z,55.30
2018-03-15T03:20:35.645Z,55.33
2018-03-15T03:21:38.185Z,55.31
2018-03-15T03:22:40.706Z,55.34
2018-03-15T03:23:43.208Z,55.29
2018-03-15T03:24:45.708Z,55.22
2018-03-15T03:25:48.278Z,55.38
2018-03-15T03:26:50.776Z,55.34
2018-03-15T03:27:53.272Z,55.39
2018-03-15T03:28:55.776Z,55.18
2018-03-15T03:29:58.273Z,55.06
2018-03-15T03:31:00.806Z,54.96
2018-03-15T03:32:03.338Z,54.98
2018-03-15T03:33:05.840Z,55.00
2018-03-15T03:34:08.337Z,54.92
2018-03-15T03:35:10.826Z,54.93
2018-03-15T03:36:13.357Z,54.98
2018-03-15T03:37:15.917Z,55.03
2018-03-15T03:38:18.435Z,54.99
2018-03-15T03:39:20.948Z,54.94
2018-03-15T03:40:23.601Z,54.98
2018-03-15T03:41:26.124Z,54.96
2018-03-15T03:42:28.624Z,54.94
2018-03-15T03:43:31.145Z,55.06
2018-03-15T03:44:33.662Z,55.00
2018-03-15T03:45:36.165Z,54.96
2018-03-15T03:46:38.727Z,54.95
2018-03-15T03:47:41.210Z,55.21
2018-03-15T03:48:43.864Z,55.40
2018-03-15T03:49:46.362Z,55.36
2018-03-15T03:50:48.876Z,55.68
2018-03-15T03:51:51.406Z,55.84
2018-03-15T03:52:53.918Z,55.75
2018-03-15T03:53:56.434Z,55.79
2018-03-15T03:54:58.953Z,55.68
2018-03-15T03:56:01.458Z,55.73
2018-03-15T03:57:03.984Z,55.66
2018-03-15T03:58:06.476Z,55.50
2018-03-15T03:59:08.989Z,55.44
2018-03-15T04:00:11.509Z,55.71
2018-03-15T04:01:14.123Z,55.98
2018-03-15T04:02:16.642Z,56.11
2018-03-15T04:03:19.331Z,56.16
2018-03-15T04:04:21.820Z,56.13
2018-03-15T04:05:24.440Z,56.08
2018-03-15T04:06:26.935Z,56.01
2018-03-15T04:07:29.469Z,55.91
2018-03-15T04:08:31.972Z,55.95
2018-03-15T04:09:34.469Z,55.77
2018-03-15T04:10:37.061Z,55.69
2018-03-15T04:11:39.550Z,55.73
2018-03-15T04:12:42.054Z,55.66
2018-03-15T04:13:44.546Z,55.71
2018-03-15T04:14:47.060Z,55.62
2018-03-15T04:15:49.558Z,55.60
2018-03-15T04:16:52.075Z,55.62
2018-03-15T04:17:54.590Z,55.59
2018-03-15T04:18:57.088Z,55.65
2018-03-15T04:19:59.593Z,55.80
2018-03-15T04:21:02.107Z,55.89
2018-03-15T04:22:04.629Z,55.84
2018-03-15T04:23:07.138Z,55.78
2018-03-15T04:24:09.630Z,55.97
2018-03-15T04:25:12.148Z,56.01
2018-03-15T04:26:14.662Z,56.28
2018-03-15T04:27:17.185Z,56.68
2018-03-15T04:28:19.719Z,56.56
2018-03-15T04:29:22.219Z,56.58
2018-03-15T04:30:24.727Z,56.50
2018-03-15T04:31:27.229Z,56.52
2018-03-15T04:32:29.744Z,56.53
2018-03-15T04:33:32.279Z,56.45
2018-03-15T04:34:34.784Z,56.43
2018-03-15T04:35:37.281Z,56.40
2018-03-15T04:36:39.789Z,56.75
2018-03-15T04:37:42.327Z,56.95
2018-03-15T04:38:44.841Z,56.76
2018-03-15T04:39:47.344Z,56.50
2018-03-15T04:40:49.851Z,56.36
2018-03-15T04:41:52.367Z,56.24
2018-03-15T04:42:54.870Z,56.25
2018-03-15T04:43:57.392Z,56.48
2018-03-15T04:44:59.897Z,56.67
2018-03-15T04:46:02.408Z,56.47
2018-03-15T04:47:04.908Z,56.51
2018-03-15T04:48:07.437Z,56.39
2018-03-15T04:49:09.956Z,56.18
2018-03-15T04:50:12.448Z,56.28
2018-03-15T04:51:14.959Z,56.25
2018-03-15T04:52:17.468Z,56.39
2018-03-15T04:53:19.962Z,56.30
2018-03-15T04:54:22.494Z,56.17
2018-03-15T04:55:25.000Z,56.15
2018-03-15T04:56:27.505Z,56.20
2018-03-15T04:57:30.005Z,56.13
2018-03-15T04:58:32.551Z,56.05
2018-03-15T04:59:35.052Z,56.07
2018-03-15T05:00:37.566Z,56.08
2018-03-15T05:01:40.060Z,56.14
2018-03-15T05:02:42.554Z,56.17
2018-03-15T05:03:45.060Z,56.10
2018-03-15T05:04:47.588Z,56.14
2018-03-15T05:05:50.102Z,56.00
2018-03-15T05:06:52.608Z,56.28
2018-03-15T05:07:55.121Z,56.31
2018-03-15T05:08:57.701Z,56.16
2018-03-15T05:10:00.229Z,56.09
2018-03-15T05:11:02.763Z,56.23
2018-03-15T05:12:05.306Z,56.30
2018-03-15T05:13:07.822Z,56.46
2018-03-15T05:14:10.308Z,56.39
2018-03-15T05:15:12.890Z,56.35
2018-03-15T05:16:15.397Z,56.44
2018-03-15T05:17:17.892Z,56.61
2018-03-15T05:18:20.407Z,56.61
2018-03-15T05:19:22.918Z,56.52
2018-03-15T05:20:25.440Z,56.51
2018-03-15T05:21:28.015Z,56.77
2018-03-15T05:22:30.502Z,56.63
2018-03-15T05:23:32.996Z,56.54
2018-03-15T05:24:35.500Z,56.58
2018-03-15T05:25:38.025Z,56.68
2018-03-15T05:26:40.556Z,56.73
2018-03-15T05:27:43.082Z,56.77
2018-03-15T05:28:45.603Z,56.74
2018-03-15T05:29:48.126Z,56.61
2018-03-15T05:30:50.667Z,56.47
2018-03-15T05:31:53.340Z,56.36
2018-03-15T05:32:55.831Z,56.41
2018-03-15T05:33:58.346Z,56.35
2018-03-15T05:35:00.855Z,56.22
2018-03-15T05:36:03.441Z,56.19
2018-03-15T05:37:05.948Z,56.23
2018-03-15T05:38:08.470Z,56.27
2018-03-15T05:39:11.131Z,56.27
2018-03-15T05:40:13.636Z,56.20
2018-03-15T05:41:16.160Z,56.25
2018-03-15T05:42:18.702Z,56.31
2018-03-15T05:43:21.223Z,56.40
2018-03-15T05:44:23.734Z,56.33
2018-03-15T05:45:26.267Z,56.25
2018-03-15T05:46:29.043Z,56.17
2018-03-15T05:47:31.580Z,56.09
2018-03-15T05:48:34.118Z,56.11
2018-03-15T05:49:36.645Z,56.19
2018-03-15T05:50:39.161Z,56.17
2018-03-15T05:51:41.666Z,56.17
2018-03-15T05:52:44.205Z,56.31
2018-03-15T05:53:46.708Z,56.46
2018-03-15T05:54:49.231Z,56.52
2018-03-15T05:55:51.750Z,56.46
2018-03-15T05:56:54.252Z,56.45
2018-03-15T05:57:56.762Z,56.53
2018-03-15T05:58:59.271Z,56.76
2018-03-15T06:00:01.863Z,56.78
2018-03-15T06:01:04.385Z,56.67
2018-03-15T06:02:06.884Z,56.59
2018-03-15T06:03:09.380Z,56.47
2018-03-15T06:04:11.892Z,56.31
2018-03-15T06:05:14.394Z,56.25
2018-03-15T06:06:16.922Z,56.26
2018-03-15T06:07:19.463Z,56.23
2018-03-15T06:08:21.960Z,56.32
2018-03-15T06:09:24.478Z,56.41
2018-03-15T06:10:26.996Z,56.43
2018-03-15T06:11:29.545Z,56.44
2018-03-15T06:12:32.132Z,56.56
2018-03-15T06:13:34.783Z,56.47
2018-03-15T06:14:37.297Z,56.40
2018-03-15T06:15:39.826Z,56.29
2018-03-15T06:16:42.344Z,56.28
2018-03-15T06:17:44.873Z,56.30
2018-03-15T06:18:47.366Z,56.35
2018-03-15T06:19:49.850Z,56.29
2018-03-15T06:20:52.376Z,56.10
2018-03-15T06:21:54.916Z,56.30
2018-03-15T06:22:57.454Z,56.43
2018-03-15T06:24:00.033Z,56.49
2018-03-15T06:25:02.544Z,56.56
2018-03-15T06:26:05.057Z,56.67
2018-03-15T06:27:07.606Z,56.57
2018-03-15T06:28:10.118Z,56.50
2018-03-15T06:29:12.657Z,56.43
2018-03-15T06:30:15.132Z,56.40
2018-03-15T06:31:17.636Z,56.29
2018-03-15T06:32:20.161Z,56.45
2018-03-15T06:33:22.709Z,56.51
2018-03-15T06:34:25.206Z,56.48
2018-03-15T06:35:27.721Z,56.48
2018-03-15T06:36:30.224Z,56.47
2018-03-15T06:37:32.803Z,56.74
2018-03-15T06:38:35.343Z,56.75
2018-03-15T06:39:37.899Z,56.62
2018-03-15T06:40:40.404Z,56.41
2018-03-15T06:41:42.974Z,56.63
2018-03-15T06:42:45.529Z,56.54
2018-03-15T06:43:48.023Z,56.62
2018-03-15T06:44:50.566Z,56.45
2018-03-15T06:45:53.069Z,56.50
2018-03-15T06:46:55.565Z,56.48
2018-03-15T06:47:58.260Z,56.59
2018-03-15T06:49:00.762Z,56.75
2018-03-15T06:50:03.259Z,56.82
2018-03-15T06:51:05.819Z,56.87
2018-03-15T06:52:08.350Z,56.72
2018-03-15T06:53:10.877Z,56.72
2018-03-15T06:54:13.418Z,56.75
2018-03-15T06:55:15.910Z,56.85
2018-03-15T06:56:18.398Z,56.85
2018-03-15T06:57:20.893Z,57.02
2018-03-15T06:58:23.413Z,57.28
2018-03-15T06:59:25.935Z,57.34
2018-03-15T07:00:28.448Z,57.30
2018-03-15T07:01:30.937Z,57.19
2018-03-15T07:02:33.452Z,57.13
2018-03-15T07:03:36.892Z,57.15
2018-03-15T07:04:39.407Z,57.16
2018-03-15T07:05:42.035Z,57.18
2018-03-15T07:06:44.528Z,57.11
2018-03-15T07:07:47.010Z,56.94
2018-03-15T07:08:49.515Z,57.03
2018-03-15T07:09:52.012Z,57.10
2018-03-15T07:10:54.531Z,57.21
2018-03-15T07:11:57.063Z,57.41
2018-03-15T07:12:59.586Z,57.41
2018-03-15T07:14:02.126Z,57.30
2018-03-15T07:15:04.920Z,57.38
2018-03-15T07:16:07.433Z,57.25
2018-03-15T07:17:09.970Z,57.28
2018-03-15T07:18:12.491Z,57.57
2018-03-15T07:19:15.017Z,57.77
2018-03-15T07:20:17.540Z,56.44
2018-03-15T07:21:20.322Z,56.00
2018-03-15T07:22:22.836Z,55.82
2018-03-15T07:23:25.363Z,55.52
2018-03-15T07:24:27.900Z,55.51
2018-03-15T07:25:30.430Z,55.58
2018-03-15T07:26:32.984Z,55.68
2018-03-15T07:27:35.509Z,55.82
2018-03-15T07:28:38.019Z,55.85
2018-03-15T07:29:40.554Z,55.98
2018-03-15T07:30:43.072Z,56.11
2018-03-15T07:31:45.666Z,56.00
2018-03-15T07:32:48.171Z,55.85
2018-03-15T07:33:50.664Z,55.90
2018-03-15T07:34:53.178Z,55.95
2018-03-15T07:35:55.676Z,55.92
2018-03-15T07:36:58.194Z,55.87
2018-03-15T07:38:00.748Z,55.86
2018-03-15T07:39:03.262Z,55.76
2018-03-15T07:40:05.795Z,55.97
2018-03-15T07:41:08.331Z,56.15
2018-03-15T07:42:10.822Z,55.99
2018-03-15T07:43:13.333Z,55.80
2018-03-15T07:44:15.862Z,55.85
2018-03-15T07:45:18.407Z,56.06
2018-03-15T07:46:20.926Z,56.03
2018-03-15T07:47:23.433Z,56.09
2018-03-15T07:48:25.952Z,56.42
2018-03-15T07:49:28.470Z,56.43
2018-03-15T07:50:31.038Z,56.38
2018-03-15T07:51:33.526Z,56.47
2018-03-15T07:52:36.024Z,56.36
2018-03-15T07:53:38.543Z,56.36
2018-03-15T07:54:41.092Z,56.48
2018-03-15T07:55:43.592Z,56.37
2018-03-15T07:56:46.092Z,56.43
2018-03-15T07:57:48.602Z,56.25
2018-03-15T07:58:51.108Z,56.17
2018-03-15T07:59:53.636Z,56.06
2018-03-15T08:00:56.153Z,56.04
2018-03-15T08:01:58.791Z,56.25
2018-03-15T08:03:01.305Z,56.35
2018-03-15T08:04:03.903Z,56.45
2018-03-15T08:05:06.421Z,56.41
2018-03-15T08:06:08.931Z,56.40
2018-03-15T08:07:11.547Z,56.28
2018-03-15T08:08:14.052Z,56.18
2018-03-15T08:09:16.600Z,56.09
2018-03-15T08:10:19.134Z,56.07
2018-03-15T08:11:21.628Z,56.29
2018-03-15T08:12:24.114Z,56.63
2018-03-15T08:13:26.621Z,56.87
2018-03-15T08:14:29.132Z,56.92
2018-03-15T08:15:31.661Z,56.60
2018-03-15T08:16:34.173Z,56.41
2018-03-15T08:17:36.743Z,56.39
2018-03-15T08:18:39.239Z,56.36
2018-03-15T08:19:41.726Z,56.24
2018-03-15T08:20:44.316Z,56.45
2018-03-15T08:21:46.816Z,56.31
2018-03-15T08:22:49.727Z,56.26
2018-03-15T08:23:52.246Z,56.30
2018-03-15T08:24:54.763Z,56.13
2018-03-15T08:25:57.307Z,56.00
2018-03-15T08:26:59.805Z,56.01
2018-03-15T08:28:02.330Z,56.05
2018-03-15T08:29:04.829Z,56.04
2018-03-15T08:30:07.340Z,56.15
2018-03-15T08:31:09.864Z,56.20
2018-03-15T08:32:12.358Z,57.00
2018-03-15T08:33:14.856Z,57.06
2018-03-15T08:34:17.360Z,55.95
2018-03-15T08:35:19.951Z,53.80
2018-03-15T08:36:22.489Z,50.44
2018-03-15T08:37:24.996Z,47.45
2018-03-15T08:38:27.487Z,45.33
2018-03-15T08:39:29.994Z,45.06
2018-03-15T08:40:32.517Z,43.58
2018-03-15T08:41:35.030Z,43.64
2018-03-15T08:42:37.541Z,43.83
2018-03-15T08:43:40.061Z,43.13
2018-03-15T08:44:42.578Z,43.38
2018-03-15T08:45:45.115Z,42.68
2018-03-15T08:46:47.650Z,42.94
2018-03-15T08:47:50.489Z,42.79
2018-03-15T08:48:53.244Z,42.59
2018-03-15T08:49:55.776Z,42.16
2018-03-15T08:50:58.287Z,42.24
2018-03-15T08:52:00.931Z,42.52
2018-03-15T08:53:03.442Z,42.50
2018-03-15T08:54:05.949Z,42.52
2018-03-15T08:55:08.487Z,42.32
2018-03-15T08:56:11.004Z,42.23
2018-03-15T08:57:13.547Z,42.32
2018-03-15T08:58:16.060Z,42.80
2018-03-15T08:59:18.586Z,42.79
2018-03-15T09:00:21.103Z,41.87
2018-03-15T09:01:23.673Z,41.72
2018-03-15T09:02:26.236Z,41.77
2018-03-15T09:03:28.838Z,41.83
2018-03-15T09:04:31.357Z,42.05
2018-03-15T09:05:33.940Z,41.89
2018-03-15T09:06:36.457Z,41.85
2018-03-15T09:07:39.147Z,41.02
2018-03-15T09:08:41.660Z,40.99
2018-03-15T09:09:44.185Z,41.20
2018-03-15T09:10:46.694Z,42.39
2018-03-15T09:11:49.203Z,42.07
2018-03-15T09:12:51.726Z,41.78
2018-03-15T09:13:54.224Z,41.75
2018-03-15T09:14:57.384Z,41.70
2018-03-15T09:15:59.911Z,41.77
2018-03-15T09:17:02.473Z,41.69
2018-03-15T09:18:05.052Z,40.95
2018-03-15T09:19:07.593Z,40.96
2018-03-15T09:20:10.107Z,41.15
2018-03-15T09:21:12.647Z,41.30
2018-03-15T09:22:15.166Z,41.40
2018-03-15T09:23:17.709Z,41.32
2018-03-15T09:24:20.206Z,42.06
2018-03-15T09:25:22.771Z,42.01
2018-03-15T09:26:25.291Z,41.66
2018-03-15T09:27:27.847Z,41.23
2018-03-15T09:28:30.366Z,40.80
2018-03-15T09:29:32.885Z,40.76
2018-03-15T09:30:35.410Z,41.00
2018-03-15T09:31:37.940Z,40.97
2018-03-15T09:32:40.524Z,40.45
2018-03-15T09:33:43.116Z,40.24
2018-03-15T09:34:45.678Z,40.12
2018-03-15T09:35:48.212Z,40.27
2018-03-15T09:36:50.740Z,40.32
2018-03-15T09:37:53.290Z,40.44
2018-03-15T09:38:55.841Z,40.22
2018-03-15T09:39:58.394Z,40.38
2018-03-15T09:41:00.940Z,40.75
2018-03-15T09:42:03.494Z,41.39
2018-03-15T09:43:06.037Z,41.59
2018-03-15T09:44:08.621Z,41.98
2018-03-15T09:45:11.156Z,42.17
2018-03-15T09:46:13.729Z,42.14
2018-03-15T09:47:16.273Z,42.12
2018-03-15T09:48:18.790Z,42.80
2018-03-15T09:49:21.332Z,42.49
2018-03-15T09:50:23.876Z,42.76
2018-03-15T09:51:26.402Z,43.09
2018-03-15T09:52:28.938Z,43.07
2018-03-15T09:53:31.473Z,43.18
2018-03-15T09:54:34.006Z,43.26
2018-03-15T09:55:36.547Z,44.05
2018-03-15T09:56:39.103Z,44.18
2018-03-15T09:57:41.646Z,43.83
2018-03-15T09:58:44.223Z,43.53
2018-03-15T09:59:46.829Z,43.91
2018-03-15T10:00:49.354Z,43.71
2018-03-15T10:01:51.867Z,44.25
2018-03-15T10:02:54.390Z,44.31
2018-03-15T10:03:56.967Z,44.05
2018-03-15T10:04:59.508Z,44.22
2018-03-15T10:06:02.059Z,44.08
2018-03-15T10:07:04.620Z,44.52
2018-03-15T10:08:07.157Z,44.46
2018-03-15T10:09:09.693Z,44.21
2018-03-15T10:10:12.241Z,44.25
2018-03-15T10:11:14.777Z,44.22
2018-03-15T10:12:17.309Z,44.42
2018-03-15T10:13:19.837Z,44.37
2018-03-15T10:14:22.356Z,44.48
2018-03-15T10:15:24.899Z,44.89
2018-03-15T10:16:27.471Z,44.75
2018-03-15T10:17:29.952Z,44.93
2018-03-15T10:18:32.615Z,45.18
2018-03-15T10:19:35.144Z,44.55
2018-03-15T10:20:37.689Z,44.46
2018-03-15T10:21:40.199Z,44.72
2018-03-15T10:22:42.724Z,44.64
2018-03-15T10:23:45.294Z,45.09
2018-03-15T10:24:47.839Z,44.88
2018-03-15T10:25:50.380Z,45.01
2018-03-15T10:26:52.898Z,44.83
2018-03-15T10:27:55.403Z,44.80
2018-03-15T10:28:57.935Z,45.21
2018-03-15T10:30:00.587Z,44.99
2018-03-15T10:31:03.330Z,44.80
2018-03-15T10:32:05.914Z,44.68
2018-03-15T10:33:13.952Z,44.72
2018-03-15T10:34:16.732Z,44.66
2018-03-15T10:35:24.978Z,44.95
2018-03-15T10:36:27.549Z,44.73
2018-03-15T10:37:30.088Z,44.97
2018-03-15T10:38:32.617Z,44.85
2018-03-15T10:39:36.549Z,44.75
2018-03-15T10:40:39.237Z,44.54
2018-03-15T10:41:41.777Z,44.58
2018-03-15T10:42:44.341Z,44.41
2018-03-15T10:43:46.867Z,44.22
2018-03-15T10:44:49.468Z,44.42
2018-03-15T10:45:51.998Z,45.10
2018-03-15T10:46:54.558Z,45.10
2018-03-15T10:47:57.124Z,45.06
2018-03-15T10:48:59.633Z,45.13
2018-03-15T10:50:02.195Z,45.29
2018-03-15T10:51:04.741Z,45.52
2018-03-15T10:52:07.284Z,45.82
2018-03-15T10:53:09.813Z,45.71
2018-03-15T10:54:12.337Z,46.01
2018-03-15T10:55:14.868Z,46.00
2018-03-15T10:56:17.397Z,46.01
2018-03-15T10:57:19.954Z,46.05
2018-03-15T10:58:22.480Z,46.08
2018-03-15T10:59:25.031Z,46.35
2018-03-15T11:00:33.244Z,46.55
2018-03-15T11:01:41.360Z,46.66
2018-03-15T11:02:47.919Z,45.85
2018-03-15T11:03:50.448Z,45.81
2018-03-15T11:04:58.607Z,45.94
2018-03-15T11:06:14.969Z,46.19
2018-03-15T11:07:23.112Z,46.54
2018-03-15T11:08:25.648Z,46.30
2018-03-15T11:09:31.940Z,46.19
2018-03-15T11:10:34.473Z,46.07
2018-03-15T11:11:37.143Z,46.05
2018-03-15T11:12:39.705Z,46.09
2018-03-15T11:13:42.241Z,46.35
2018-03-15T11:14:44.789Z,46.26
2018-03-15T11:15:47.313Z,46.28
2018-03-15T11:16:49.837Z,46.40
2018-03-15T11:17:52.398Z,46.55
2018-03-15T11:18:54.985Z,46.14
2018-03-15T11:19:57.528Z,45.94
2018-03-15T11:21:00.073Z,46.17
2018-03-15T11:22:02.648Z,46.61
2018-03-15T11:23:05.224Z,46.51
2018-03-15T11:24:07.824Z,46.63
2018-03-15T11:25:10.346Z,46.85
2018-03-15T11:26:12.925Z,47.01
2018-03-15T11:27:15.487Z,47.13
2018-03-15T11:28:18.043Z,47.24
2018-03-15T11:29:20.611Z,47.40
2018-03-15T11:30:23.150Z,47.42
2018-03-15T11:31:25.682Z,47.40
2018-03-15T11:32:28.239Z,47.48
2018-03-15T11:33:30.797Z,47.48
2018-03-15T11:34:33.329Z,48.16
2018-03-15T11:35:35.905Z,47.54
2018-03-15T11:36:38.442Z,47.49
2018-03-15T11:37:40.966Z,47.53
2018-03-15T11:38:43.514Z,47.61
2018-03-15T11:39:46.052Z,47.65
2018-03-15T11:40:48.575Z,47.65
2018-03-15T11:41:51.113Z,47.48
2018-03-15T11:42:53.648Z,47.40
2018-03-15T11:43:56.262Z,47.45
2018-03-15T11:44:58.790Z,47.45
2018-03-15T11:46:01.311Z,47.48
2018-03-15T11:47:03.850Z,47.65
2018-03-15T11:48:06.437Z,47.13
2018-03-15T11:49:08.999Z,47.14
2018-03-15T11:50:11.645Z,47.36
2018-03-15T11:51:14.231Z,47.39
2018-03-15T11:52:16.761Z,47.35
2018-03-15T11:53:19.268Z,47.28
2018-03-15T11:54:21.831Z,47.05
2018-03-15T11:55:24.355Z,46.87
2018-03-15T11:56:26.879Z,46.62
2018-03-15T11:57:29.414Z,46.45
2018-03-15T11:58:31.971Z,46.79
2018-03-15T11:59:34.574Z,47.18
2018-03-15T12:00:37.161Z,47.45
2018-03-15T12:01:39.639Z,47.66
2018-03-15T12:02:42.169Z,47.82
2018-03-15T12:03:44.725Z,47.84
2018-03-15T12:04:47.259Z,47.87
2018-03-15T12:05:49.790Z,47.79
2018-03-15T12:06:52.310Z,47.71
2018-03-15T12:07:54.859Z,47.65
2018-03-15T12:08:57.377Z,47.53
2018-03-15T12:09:59.929Z,47.42
2018-03-15T12:11:02.470Z,47.24
2018-03-15T12:12:05.008Z,47.13
2018-03-15T12:13:07.555Z,46.99
2018-03-15T12:14:10.097Z,46.90
2018-03-15T12:15:12.644Z,46.92
2018-03-15T12:16:15.168Z,46.94
2018-03-15T12:17:17.707Z,47.01
2018-03-15T12:18:20.221Z,47.17
2018-03-15T12:19:22.714Z,47.16
2018-03-15T12:20:25.241Z,47.16
2018-03-15T12:21:27.809Z,47.15
2018-03-15T12:22:30.309Z,47.11
2018-03-15T12:23:32.822Z,47.12
2018-03-15T12:24:35.420Z,47.16
2018-03-15T12:25:38.014Z,47.19
2018-03-15T12:26:40.619Z,47.21
2018-03-15T12:27:43.131Z,47.22
2018-03-15T12:28:45.659Z,47.25
2018-03-15T12:29:48.178Z,47.29
2018-03-15T12:30:50.731Z,47.29
2018-03-15T12:31:53.244Z,47.32
2018-03-15T12:32:55.911Z,47.34
2018-03-15T12:33:58.424Z,47.36
2018-03-15T12:35:00.938Z,47.38
2018-03-15T12:36:03.476Z,47.39
2018-03-15T12:37:05.993Z,47.39
2018-03-15T12:38:08.513Z,47.40
2018-03-15T12:39:11.010Z,47.41
2018-03-15T12:40:13.621Z,47.40
2018-03-15T12:41:16.284Z,47.41
2018-03-15T12:42:18.801Z,47.57
2018-03-15T12:43:21.307Z,47.79
2018-03-15T12:44:23.852Z,47.72
2018-03-15T12:45:26.370Z,47.81
2018-03-15T12:46:28.900Z,48.07
2018-03-15T12:47:31.419Z,48.20
2018-03-15T12:48:33.939Z,47.81
2018-03-15T12:49:36.472Z,47.77
2018-03-15T12:50:38.981Z,47.70
2018-03-15T12:51:41.527Z,47.69
2018-03-15T12:52:44.050Z,47.67
2018-03-15T12:53:46.547Z,47.64
2018-03-15T12:54:49.043Z,47.65
2018-03-15T12:55:51.589Z,47.55
2018-03-15T12:56:54.126Z,47.76
2018-03-15T12:57:56.655Z,47.73
2018-03-15T12:58:59.190Z,47.57
2018-03-15T13:00:01.699Z,46.93
2018-03-15T13:01:04.227Z,45.99
2018-03-15T13:02:06.756Z,45.76
2018-03-15T13:03:09.283Z,45.07
2018-03-15T13:04:11.787Z,44.59
2018-03-15T13:05:14.318Z,44.22
2018-03-15T13:06:16.831Z,43.94
2018-03-15T13:07:19.357Z,43.10
2018-03-15T13:08:21.878Z,42.50
2018-03-15T13:09:24.400Z,42.55
2018-03-15T13:10:26.945Z,42.62
2018-03-15T13:11:29.485Z,43.04
2018-03-15T13:12:32.020Z,43.17
2018-03-15T13:13:34.509Z,43.45
2018-03-15T13:14:37.028Z,43.62
2018-03-15T13:15:39.544Z,43.95
2018-03-15T13:16:42.055Z,44.10
2018-03-15T13:17:44.577Z,43.90
2018-03-15T13:18:47.090Z,43.75
2018-03-15T13:19:49.624Z,44.22
2018-03-15T13:20:52.171Z,44.27
2018-03-15T13:21:54.692Z,44.37
2018-03-15T13:22:57.210Z,44.40
2018-03-15T13:23:59.717Z,44.54
2018-03-15T13:25:02.207Z,45.17
2018-03-15T13:26:04.708Z,45.01